createdAt,value
2023-04-15T00:01:06.056Z,100966.75
2023-04-15T00:03:34.716Z,100987.34
2023-04-15T00:06:03.373Z,100987.38
2023-04-15T00:08:31.296Z,100984.69
2023-04-15T00:11:03.282Z,100984.63
2023-04-15T00:13:30.635Z,100985.38
2023-04-15T00:15:57.459Z,100979.44
2023-04-15T00:18:25.053Z,100989.91
2023-04-15T00:20:52.597Z,100980.25
2023-04-15T00:23:19.492Z,100990.66
2023-04-15T00:25:48.050Z,100989.75
2023-04-15T00:28:14.763Z,100982.78
2023-04-15T00:30:43.415Z,100987.88
2023-04-15T00:33:10.258Z,100980.78
2023-04-15T00:35:38.679Z,100974.53
2023-04-15T00:38:07.445Z,100990.78
2023-04-15T00:40:34.819Z,100981.03
2023-04-15T00:43:01.931Z,100994.78
2023-04-15T00:45:29.608Z,100999.91
2023-04-15T00:47:57.580Z,100995.47
2023-04-15T00:50:24.226Z,100995.38
2023-04-15T00:52:50.806Z,100997.78
2023-04-15T00:55:17.459Z,100992.59
2023-04-15T00:57:44.793Z,100989.91
2023-04-15T01:00:13.828Z,100992.38
2023-04-15T01:02:43.397Z,100995.69
2023-04-15T01:05:10.290Z,101002.38
2023-04-15T01:07:37.128Z,100992.78
2023-04-15T01:10:04.808Z,100990.97
2023-04-15T01:12:33.393Z,100990.28
2023-04-15T01:15:00.482Z,101003.09
2023-04-15T01:17:27.357Z,101001.28
2023-04-15T01:19:59.810Z,101000.25
2023-04-15T01:22:27.874Z,101005.44
2023-04-15T01:25:18.564Z,101003.63
2023-04-15T01:27:45.487Z,100993.09
2023-04-15T01:30:12.357Z,101003.25
2023-04-15T01:32:39.208Z,100979.06
2023-04-15T01:35:06.266Z,101003.19
2023-04-15T01:37:33.719Z,101004.88
2023-04-15T01:40:00.291Z,101013.34
2023-04-15T01:42:27.638Z,100999.41
2023-04-15T01:44:54.454Z,101010.69
2023-04-15T01:47:20.996Z,101015.69
2023-04-15T01:49:47.587Z,101012.22
2023-04-15T01:52:14.414Z,101008.69
2023-04-15T01:54:41.001Z,101018.09
2023-04-15T01:57:07.520Z,101017.22
2023-04-15T01:59:34.055Z,101020.69
2023-04-15T02:02:00.597Z,101016.50
2023-04-15T02:04:28.090Z,101017.22
2023-04-15T02:06:54.780Z,101014.78
2023-04-15T02:09:21.367Z,101007.81
2023-04-15T02:11:47.896Z,101017.28
2023-04-15T02:14:14.528Z,101016.41
2023-04-15T02:16:41.339Z,101024.13
2023-04-15T02:19:08.117Z,101026.66
2023-04-15T02:21:35.494Z,101026.56
2023-04-15T02:24:02.565Z,101029.16
2023-04-15T02:26:32.106Z,101023.00
2023-04-15T02:28:58.979Z,101028.09
2023-04-15T02:31:26.077Z,101032.28
2023-04-15T02:33:52.643Z,101043.38
2023-04-15T02:36:19.738Z,101048.38
2023-04-15T02:38:46.243Z,101040.59
2023-04-15T02:41:12.798Z,101049.94
2023-04-15T02:43:40.001Z,101041.50
2023-04-15T02:46:06.792Z,101049.03
2023-04-15T02:48:33.422Z,101047.25
2023-04-15T02:51:20.047Z,101048.91
2023-04-15T02:53:48.486Z,101054.03
2023-04-15T02:56:15.997Z,101049.50
2023-04-15T02:58:43.642Z,101065.84
2023-04-15T03:01:10.226Z,101053.97
2023-04-15T03:03:36.912Z,101056.44
2023-04-15T03:06:03.685Z,101057.13
2023-04-15T03:08:30.261Z,101064.94
2023-04-15T03:11:00.705Z,101063.19
2023-04-15T03:13:27.289Z,101059.47
2023-04-15T03:15:53.837Z,101058.50
2023-04-15T03:18:20.410Z,101048.19
2023-04-15T03:20:47.206Z,101066.50
2023-04-15T03:23:13.794Z,101062.88
2023-04-15T03:25:40.539Z,101063.53
2023-04-15T03:28:07.113Z,101069.31
2023-04-15T03:30:33.711Z,101077.91
2023-04-15T03:33:00.535Z,101079.47
2023-04-15T03:35:27.142Z,101084.47
2023-04-15T03:37:53.693Z,101086.88
2023-04-15T03:40:21.621Z,101088.66
2023-04-15T03:42:48.245Z,101080.97
2023-04-15T03:45:14.821Z,101085.25
2023-04-15T03:47:41.649Z,101090.47
2023-04-15T03:50:09.140Z,101081.97
2023-04-15T03:52:35.737Z,101094.97
2023-04-15T03:55:02.333Z,101099.22
2023-04-15T03:57:28.932Z,101092.97
2023-04-15T03:59:55.517Z,101108.31
2023-04-15T04:02:23.229Z,101110.78
2023-04-15T04:04:50.089Z,101104.78
2023-04-15T04:07:17.277Z,101115.00
2023-04-15T04:09:45.187Z,101124.19
2023-04-15T04:12:13.353Z,101119.63
2023-04-15T04:14:39.974Z,101126.25
2023-04-15T04:17:06.804Z,101130.34
2023-04-15T04:19:33.454Z,101124.13
2023-04-15T04:22:00.087Z,101129.34
2023-04-15T04:24:26.703Z,101146.72
2023-04-15T04:26:53.396Z,101135.38
2023-04-15T04:29:19.932Z,101144.16
2023-04-15T04:31:48.656Z,101146.72
2023-04-15T04:34:16.058Z,101155.38
2023-04-15T04:36:42.712Z,101158.00
2023-04-15T04:39:09.240Z,101155.22
2023-04-15T04:41:36.003Z,101162.13
2023-04-15T04:44:02.531Z,101167.94
2023-04-15T04:46:29.217Z,101164.31
2023-04-15T04:48:55.810Z,101179.56
2023-04-15T04:51:22.483Z,101175.97
2023-04-15T04:53:49.046Z,101177.56
2023-04-15T04:56:15.616Z,101190.34
2023-04-15T04:58:42.549Z,101198.00
2023-04-15T05:01:09.228Z,101197.16
2023-04-15T05:03:36.555Z,101192.81
2023-04-15T05:06:06.148Z,101204.97
2023-04-15T05:08:32.851Z,101202.50
2023-04-15T05:10:59.411Z,101208.47
2023-04-15T05:13:26.167Z,101221.47
2023-04-15T05:15:52.768Z,101212.84
2023-04-15T05:18:19.399Z,101227.44
2023-04-15T05:20:46.318Z,101223.13
2023-04-15T05:23:12.962Z,101226.59
2023-04-15T05:25:39.439Z,101223.13
2023-04-15T05:28:06.589Z,101227.44
2023-04-15T05:30:33.142Z,101249.75
2023-04-15T05:32:59.822Z,101241.06
2023-04-15T05:35:27.179Z,101247.06
2023-04-15T05:37:53.696Z,101254.03
2023-04-15T05:40:20.231Z,101250.53
2023-04-15T05:42:46.794Z,101262.78
2023-04-15T05:45:13.691Z,101269.75
2023-04-15T05:47:40.255Z,101266.25
2023-04-15T05:50:07.346Z,101275.81
2023-04-15T05:52:34.043Z,101269.81
2023-04-15T05:55:00.918Z,101277.63
2023-04-15T05:57:27.451Z,101285.47
2023-04-15T05:59:54.102Z,101283.00
2023-04-15T06:02:21.191Z,101283.94
2023-04-15T06:04:48.091Z,101286.53
2023-04-15T06:07:14.729Z,101297.84
2023-04-15T06:09:41.273Z,101292.84
2023-04-15T06:12:12.100Z,101305.94
2023-04-15T06:14:39.427Z,101307.94
2023-04-15T06:17:06.281Z,101317.66
2023-04-15T06:19:33.389Z,101312.63
2023-04-15T06:22:00.253Z,101312.13
2023-04-15T06:24:26.796Z,101325.53
2023-04-15T06:26:53.316Z,101327.44
2023-04-15T06:29:19.894Z,101338.28
2023-04-15T06:31:48.259Z,101338.75
2023-04-15T06:34:14.817Z,101334.13
2023-04-15T06:36:41.363Z,101326.47
2023-04-15T06:39:07.936Z,101326.66
2023-04-15T06:41:35.508Z,101332.09
2023-04-15T06:44:02.136Z,101336.06
2023-04-15T06:46:28.700Z,101337.72
2023-04-15T06:48:55.227Z,101350.31
2023-04-15T06:51:22.397Z,101354.63
2023-04-15T06:53:48.889Z,101341.19
2023-04-15T06:56:15.897Z,101350.88
2023-04-15T06:58:42.411Z,101354.59
2023-04-15T07:01:09.001Z,101360.78
2023-04-15T07:03:35.782Z,101367.69
2023-04-15T07:06:06.406Z,101359.44
2023-04-15T07:08:33.781Z,101362.97
2023-04-15T07:11:01.449Z,101360.16
2023-04-15T07:13:28.040Z,101364.78
2023-04-15T07:15:54.631Z,101368.13
2023-04-15T07:18:21.283Z,101382.47
2023-04-15T07:20:48.123Z,101382.69
2023-04-15T07:23:14.693Z,101380.94
2023-04-15T07:25:41.209Z,101391.34
2023-04-15T07:28:07.779Z,101394.91
2023-04-15T07:30:34.597Z,101407.03
2023-04-15T07:33:02.190Z,101401.88
2023-04-15T07:35:29.428Z,101407.06
2023-04-15T07:37:56.277Z,101414.78
2023-04-15T07:40:23.012Z,101411.44
2023-04-15T07:42:49.970Z,101409.75
2023-04-15T07:45:16.990Z,101394.31
2023-04-15T07:47:43.564Z,101405.34
2023-04-15T07:50:11.476Z,101418.75
2023-04-15T07:52:40.809Z,101418.88
2023-04-15T07:55:08.688Z,101412.91
2023-04-15T07:57:36.298Z,101429.19
2023-04-15T08:00:05.826Z,101433.69
2023-04-15T08:02:32.756Z,101423.72
2023-04-15T08:04:59.889Z,101435.69
2023-04-15T08:07:26.571Z,101427.44
2023-04-15T08:09:53.122Z,101431.88
2023-04-15T08:12:19.772Z,101452.38
2023-04-15T08:14:46.998Z,101447.47
2023-04-15T08:17:13.587Z,101444.13
2023-04-15T08:19:40.865Z,101450.38
2023-04-15T08:22:10.309Z,101447.69
2023-04-15T08:24:42.719Z,101446.16
2023-04-15T08:27:09.311Z,101448.59
2023-04-15T08:29:35.867Z,101457.09
2023-04-15T08:32:02.773Z,101468.41
2023-04-15T08:34:29.993Z,101464.84
2023-04-15T08:36:56.894Z,101469.19
2023-04-15T08:39:24.472Z,101470.91
2023-04-15T08:41:56.527Z,101474.69
2023-04-15T08:44:24.048Z,101476.66
2023-04-15T08:46:52.559Z,101474.91
2023-04-15T08:49:19.476Z,101476.66
2023-04-15T08:51:46.412Z,101491.22
2023-04-15T08:54:13.226Z,101493.72
2023-04-15T08:56:40.660Z,101502.13
2023-04-15T08:59:07.498Z,101500.78
2023-04-15T09:01:34.380Z,101504.53
2023-04-15T09:04:03.293Z,101514.69
2023-04-15T09:06:29.907Z,101515.59
2023-04-15T09:08:56.677Z,101512.50
2023-04-15T09:11:23.355Z,101521.13
2023-04-15T09:13:49.935Z,101531.84
2023-04-15T09:16:16.520Z,101530.00
2023-04-15T09:18:43.141Z,101534.88
2023-04-15T09:21:11.777Z,101529.09
2023-04-15T09:23:40.704Z,101537.03
2023-04-15T09:26:07.740Z,101550.75
2023-04-15T09:28:42.434Z,101544.72
2023-04-15T09:31:10.430Z,101544.47
2023-04-15T09:33:55.109Z,101553.97
2023-04-15T09:36:21.689Z,101555.78
2023-04-15T09:38:58.796Z,101559.66
2023-04-15T09:41:26.369Z,101555.50
2023-04-15T09:43:53.488Z,101560.34
2023-04-15T09:46:20.496Z,101565.19
2023-04-15T09:48:47.163Z,101555.63
2023-04-15T09:51:14.213Z,101561.53
2023-04-15T09:53:40.816Z,101570.16
2023-04-15T09:56:08.913Z,101560.69
2023-04-15T09:58:36.139Z,101582.47
2023-04-15T10:01:06.635Z,101575.47
2023-04-15T10:03:36.884Z,101578.75
2023-04-15T10:06:05.596Z,101584.19
2023-04-15T10:08:34.967Z,101591.34
2023-04-15T10:11:05.146Z,101585.28
2023-04-15T10:13:37.317Z,101595.78
2023-04-15T10:16:12.379Z,101591.50
2023-04-15T10:18:44.172Z,101599.31
2023-04-15T10:21:11.266Z,101596.44
2023-04-15T10:23:38.629Z,101593.94
2023-04-15T10:26:06.119Z,101605.38
2023-04-15T10:28:32.685Z,101601.63
2023-04-15T10:30:59.807Z,101602.81
2023-04-15T10:33:27.734Z,101613.25
2023-04-15T10:35:56.616Z,101608.09
2023-04-15T10:38:32.022Z,101610.72
2023-04-15T10:41:21.560Z,101619.09
2023-04-15T10:43:51.482Z,101613.13
2023-04-15T10:46:45.128Z,101617.50
2023-04-15T10:49:14.301Z,101622.13
2023-04-15T10:51:46.555Z,101629.78
2023-04-15T10:54:32.561Z,101632.00
2023-04-15T10:57:02.788Z,101644.09
2023-04-15T10:59:34.119Z,101629.97
2023-04-15T11:02:02.838Z,101640.09
2023-04-15T11:04:51.432Z,101640.16
2023-04-15T11:07:46.770Z,101645.09
2023-04-15T11:10:25.795Z,101649.91
2023-04-15T11:12:53.698Z,101637.78
2023-04-15T11:15:30.583Z,101648.56
2023-04-15T11:17:58.287Z,101656.56
2023-04-15T11:20:25.782Z,101659.88
2023-04-15T11:23:08.227Z,101661.78
2023-04-15T11:25:40.836Z,101651.97
2023-04-15T11:28:10.218Z,101663.69
2023-04-15T11:30:38.008Z,101656.13
2023-04-15T11:33:06.944Z,101661.06
2023-04-15T11:35:33.625Z,101661.94
2023-04-15T11:38:04.036Z,101673.75
2023-04-15T11:40:31.572Z,101654.59
2023-04-15T11:43:18.727Z,101667.63
2023-04-15T11:46:01.327Z,101682.00
2023-04-15T11:48:35.757Z,101679.22
2023-04-15T11:51:04.604Z,101680.81
2023-04-15T11:53:48.711Z,101690.16
2023-04-15T11:56:21.139Z,101693.56
2023-04-15T11:58:50.680Z,101684.50
2023-04-15T12:01:17.340Z,101679.59
2023-04-15T12:03:47.135Z,101692.16
2023-04-15T12:06:19.549Z,101693.75
2023-04-15T12:08:55.435Z,101701.22
2023-04-15T12:11:30.585Z,101693.53
2023-04-15T12:13:59.952Z,101688.00
2023-04-15T12:16:28.679Z,101698.34
2023-04-15T12:18:58.943Z,101714.78
2023-04-15T12:21:27.481Z,101704.56
2023-04-15T12:23:56.516Z,101711.66
2023-04-15T12:26:28.527Z,101718.44
2023-04-15T12:28:57.181Z,101715.22
2023-04-15T12:31:24.184Z,101728.00
2023-04-15T12:33:51.045Z,101714.75
2023-04-15T12:36:17.732Z,101726.09
2023-04-15T12:38:44.268Z,101718.38
2023-04-15T12:41:10.837Z,101718.25
2023-04-15T12:43:37.456Z,101727.88
2023-04-15T12:46:05.019Z,101722.00
2023-04-15T12:48:31.600Z,101743.19
2023-04-15T12:50:58.150Z,101744.22
2023-04-15T12:53:24.735Z,101740.47
2023-04-15T12:55:51.284Z,101744.31
2023-04-15T12:58:18.049Z,101749.69
2023-04-15T13:00:44.860Z,101751.97
2023-04-15T13:03:11.447Z,101758.28
2023-04-15T13:05:39.795Z,101757.59
2023-04-15T13:08:06.784Z,101760.63
2023-04-15T13:10:36.525Z,101764.06
2023-04-15T13:13:03.511Z,101773.19
2023-04-15T13:15:30.074Z,101773.03
2023-04-15T13:17:56.761Z,101774.13
2023-04-15T13:20:23.677Z,101777.47
2023-04-15T13:22:50.467Z,101784.88
2023-04-15T13:25:17.346Z,101790.47
2023-04-15T13:27:44.007Z,101783.66
2023-04-15T13:30:10.707Z,101781.75
2023-04-15T13:32:37.376Z,101785.78
2023-04-15T13:35:05.235Z,101789.31
2023-04-15T13:37:31.760Z,101790.00
2023-04-15T13:39:58.306Z,101799.53
2023-04-15T13:42:25.013Z,101822.56
2023-04-15T13:44:51.729Z,101808.31
2023-04-15T13:47:20.375Z,101813.97
2023-04-15T13:49:46.930Z,101814.78
2023-04-15T13:52:13.778Z,101827.22
2023-04-15T13:54:40.344Z,101843.09
2023-04-15T13:57:07.004Z,101834.28
2023-04-15T13:59:34.962Z,101837.66
2023-04-15T14:02:01.863Z,101830.56
2023-04-15T14:04:28.630Z,101832.28
2023-04-15T14:06:56.135Z,101846.81
2023-04-15T14:09:26.269Z,101859.41
2023-04-15T14:11:53.227Z,101853.00
2023-04-15T14:14:19.864Z,101866.22
2023-04-15T14:16:46.562Z,101854.13
2023-04-15T14:19:13.172Z,101845.75
2023-04-15T14:21:39.737Z,101872.59
2023-04-15T14:24:06.408Z,101880.06
2023-04-15T14:26:33.009Z,101874.06
2023-04-15T14:28:59.851Z,101886.19
2023-04-15T14:31:26.871Z,101879.88
2023-04-15T14:33:55.418Z,101887.97
2023-04-15T14:36:21.986Z,101886.03
2023-04-15T14:38:51.026Z,101884.09
2023-04-15T14:41:17.551Z,101878.78
2023-04-15T14:43:44.176Z,101892.88
2023-04-15T14:46:11.317Z,101887.84
2023-04-15T14:48:38.101Z,101899.03
2023-04-15T14:51:04.802Z,101901.81
2023-04-15T14:53:31.354Z,101900.66
2023-04-15T14:55:57.924Z,101899.22
2023-04-15T14:58:24.714Z,101903.59
2023-04-15T15:00:51.329Z,101912.19
2023-04-15T15:03:18.213Z,101917.59
2023-04-15T15:05:46.882Z,101916.56
2023-04-15T15:08:14.025Z,101919.69
2023-04-15T15:10:48.219Z,101924.16
2023-04-15T15:13:15.804Z,101917.72
2023-04-15T15:15:42.588Z,101934.69
2023-04-15T15:18:10.186Z,101928.13
2023-04-15T15:20:36.897Z,101926.13
2023-04-15T15:23:03.432Z,101905.06
2023-04-15T15:25:30.048Z,101929.69
2023-04-15T15:27:57.617Z,101932.78
2023-04-15T15:30:24.270Z,101936.47
2023-04-15T15:32:51.462Z,101944.06
2023-04-15T15:35:18.203Z,101937.16
2023-04-15T15:37:45.808Z,101942.25
2023-04-15T15:40:12.642Z,101953.16
2023-04-15T15:42:39.191Z,101948.97
2023-04-15T15:45:06.444Z,101950.34
2023-04-15T15:47:33.368Z,101957.19
2023-04-15T15:50:02.333Z,101955.06
2023-04-15T15:52:30.312Z,101953.69
2023-04-15T15:54:56.902Z,101951.09
2023-04-15T15:57:23.477Z,101944.91
2023-04-15T15:59:53.077Z,101967.81
2023-04-15T16:02:37.536Z,101971.81
2023-04-15T16:05:11.351Z,101969.69
2023-04-15T16:07:37.919Z,101979.00
2023-04-15T16:10:04.864Z,101974.91
2023-04-15T16:12:32.740Z,101983.28
2023-04-15T16:15:01.207Z,101978.59
2023-04-15T16:17:27.843Z,101970.88
2023-04-15T16:19:58.967Z,101975.22
2023-04-15T16:22:27.746Z,101983.41
2023-04-15T16:24:54.434Z,101996.53
2023-04-15T16:27:21.001Z,101978.34
2023-04-15T16:29:47.718Z,102004.25
2023-04-15T16:32:16.747Z,102012.38
2023-04-15T16:34:43.447Z,102005.31
2023-04-15T16:37:09.969Z,102008.25
2023-04-15T16:39:36.612Z,101996.16
2023-04-15T16:42:03.496Z,102006.69
2023-04-15T16:44:30.437Z,102014.25
2023-04-15T16:46:57.074Z,102017.59
2023-04-15T16:49:23.604Z,102004.25
2023-04-15T16:51:50.210Z,102013.91
2023-04-15T16:54:16.754Z,102022.59
2023-04-15T16:56:43.321Z,102023.97
2023-04-15T16:59:09.848Z,102028.31
2023-04-15T17:01:39.499Z,102023.56
2023-04-15T17:04:07.284Z,102026.09
2023-04-15T17:06:33.938Z,102028.75
2023-04-15T17:09:00.641Z,102020.84
2023-04-15T17:11:28.104Z,102040.44
2023-04-15T17:13:54.662Z,102042.94
2023-04-15T17:16:21.364Z,102050.41
2023-04-15T17:18:50.249Z,102049.66
2023-04-15T17:21:17.574Z,102057.34
2023-04-15T17:23:44.208Z,102052.88
2023-04-15T17:26:11.118Z,102058.47
2023-04-15T17:28:38.024Z,102062.25
2023-04-15T17:31:05.124Z,102067.78
2023-04-15T17:34:00.659Z,102055.75
2023-04-15T17:36:18.650Z,102069.38
2023-04-15T17:38:45.729Z,102069.44
2023-04-15T17:41:12.472Z,102063.91
2023-04-15T17:43:39.082Z,102081.06
2023-04-15T17:46:07.111Z,102074.28
2023-04-15T17:48:34.420Z,102068.75
2023-04-15T17:51:01.051Z,102069.84
2023-04-15T17:53:27.572Z,102086.38
2023-04-15T17:55:54.377Z,102087.97
2023-04-15T17:58:20.938Z,102086.81
2023-04-15T18:00:48.011Z,102095.53
2023-04-15T18:03:14.939Z,102074.75
2023-04-15T18:05:42.611Z,102084.25
2023-04-15T18:08:09.830Z,102099.78
2023-04-15T18:10:37.005Z,102095.56
2023-04-15T18:13:03.655Z,102080.66
2023-04-15T18:15:31.492Z,102094.69
2023-04-15T18:17:59.039Z,102099.03
2023-04-15T18:20:25.896Z,102107.31
2023-04-15T18:22:52.715Z,102108.06
2023-04-15T18:25:19.311Z,102102.84
2023-04-15T18:27:46.119Z,102115.00
2023-04-15T18:30:13.173Z,102112.34
2023-04-15T18:32:39.969Z,102116.50
2023-04-15T18:35:06.916Z,102120.84
2023-04-15T18:37:33.616Z,102119.97
2023-04-15T18:40:00.300Z,102123.47
2023-04-15T18:42:26.945Z,102127.13
2023-04-15T18:44:53.879Z,102133.84
2023-04-15T18:47:20.673Z,102140.69
2023-04-15T18:49:47.274Z,102141.56
2023-04-15T18:52:13.836Z,102143.31
2023-04-15T18:54:40.474Z,102144.31
2023-04-15T18:57:07.130Z,102151.94
2023-04-15T18:59:33.984Z,102145.84
2023-04-15T19:02:01.304Z,102146.22
2023-04-15T19:04:29.385Z,102151.66
2023-04-15T19:06:56.335Z,102155.94
2023-04-15T19:09:22.950Z,102146.63
2023-04-15T19:11:49.518Z,102139.53
2023-04-15T19:14:17.755Z,102156.88
2023-04-15T19:16:44.397Z,102162.22
2023-04-15T19:19:14.513Z,102176.50
2023-04-15T19:21:41.502Z,102170.53
2023-04-15T19:24:08.073Z,102155.53
2023-04-15T19:26:34.797Z,102176.44
2023-04-15T19:29:01.431Z,102169.72
2023-04-15T19:31:27.989Z,102176.69
2023-04-15T19:33:54.512Z,102192.19
2023-04-15T19:36:21.396Z,102174.91
2023-04-15T19:38:48.048Z,102191.34
2023-04-15T19:41:15.674Z,102181.56
2023-04-15T19:43:42.242Z,102183.38
2023-04-15T19:46:08.970Z,102166.09
2023-04-15T19:48:36.796Z,102185.94
2023-04-15T19:51:03.439Z,102184.25
2023-04-15T19:53:30.026Z,102193.56
2023-04-15T19:55:56.862Z,102183.16
2023-04-15T19:58:23.429Z,102184.06
2023-04-15T20:00:50.027Z,102189.56
2023-04-15T20:03:17.553Z,102195.72
2023-04-15T20:05:44.280Z,102193.56
2023-04-15T20:08:10.822Z,102197.75
2023-04-15T20:10:37.898Z,102198.44
2023-04-15T20:13:04.752Z,102193.25
2023-04-15T20:15:32.662Z,102204.53
2023-04-15T20:17:59.333Z,102199.47
2023-04-15T20:20:26.294Z,102187.31
2023-04-15T20:22:53.217Z,102194.50
2023-04-15T20:25:19.925Z,102194.72
2023-04-15T20:27:46.518Z,102187.06
2023-04-15T20:30:13.075Z,102194.09
2023-04-15T20:32:39.692Z,102195.03
2023-04-15T20:35:07.060Z,102199.16
2023-04-15T20:37:34.002Z,102200.91
2023-04-15T20:40:01.638Z,102206.75
2023-04-15T20:42:32.010Z,102186.78
2023-04-15T20:44:58.573Z,102202.41
2023-04-15T20:47:25.238Z,102206.06
2023-04-15T20:49:51.875Z,102206.06
2023-04-15T20:52:18.455Z,102201.47
2023-04-15T20:54:45.059Z,102199.81
2023-04-15T20:57:11.663Z,102204.97
2023-04-15T20:59:38.401Z,102212.69
2023-04-15T21:02:05.089Z,102210.19
2023-04-15T21:04:31.730Z,102203.19
2023-04-15T21:06:58.311Z,102219.13
2023-04-15T21:09:25.407Z,102209.44
2023-04-15T21:14:21.486Z,102210.28
2023-04-15T21:16:48.201Z,102217.91
2023-04-15T21:19:15.003Z,102220.56
2023-04-15T21:21:41.621Z,102223.81
2023-04-15T21:24:08.221Z,102215.50
2023-04-15T21:26:36.032Z,102209.44
2023-04-15T21:29:03.178Z,102203.31
2023-04-15T21:31:30.580Z,102215.34
2023-04-15T21:33:57.242Z,102217.81
2023-04-15T21:36:23.774Z,102224.09
2023-04-15T21:38:50.419Z,102222.16
2023-04-15T21:41:16.957Z,102225.84
2023-04-15T21:43:43.495Z,102223.97
2023-04-15T21:46:23.258Z,102225.50
2023-04-15T21:48:52.405Z,102239.56
2023-04-15T21:51:19.002Z,102240.50
2023-04-15T21:53:45.719Z,102232.63
2023-04-15T21:56:12.510Z,102237.00
2023-04-15T21:58:39.111Z,102228.25
2023-04-15T22:01:05.810Z,102245.94
2023-04-15T22:03:34.428Z,102250.31
2023-04-15T22:06:04.754Z,102256.38
2023-04-15T22:08:41.235Z,102245.91
2023-04-15T22:11:08.595Z,102265.63
2023-04-15T22:13:35.410Z,102263.06
2023-04-15T22:16:02.561Z,102262.06
2023-04-15T22:18:29.117Z,102263.75
2023-04-15T22:20:56.357Z,102254.28
2023-04-15T22:23:22.933Z,102262.78
2023-04-15T22:25:49.483Z,102267.06
2023-04-15T22:28:16.159Z,102271.34
2023-04-15T22:30:43.514Z,102264.69
2023-04-15T22:33:10.355Z,102273.84
2023-04-15T22:35:37.476Z,102276.38
2023-04-15T22:38:05.066Z,102271.84
2023-04-15T22:40:31.821Z,102273.41
2023-04-15T22:42:58.451Z,102279.19
2023-04-15T22:45:24.982Z,102284.78
2023-04-15T22:47:51.570Z,102282.13
2023-04-15T22:50:18.140Z,102286.50
2023-04-15T22:52:46.286Z,102291.66
2023-04-15T22:55:13.161Z,102280.13
2023-04-15T22:57:39.938Z,102298.50
2023-04-15T23:00:07.522Z,102301.41
2023-04-15T23:02:34.958Z,102303.69
2023-04-15T23:05:03.877Z,102307.41
2023-04-15T23:07:39.355Z,102310.94
2023-04-15T23:10:06.966Z,102304.66
2023-04-15T23:12:33.528Z,102305.44
2023-04-15T23:15:00.409Z,102315.13
2023-04-15T23:17:27.372Z,102307.56
2023-04-15T23:19:54.007Z,102312.56
2023-04-15T23:22:20.590Z,102309.19
2023-04-15T23:24:47.210Z,102298.56
2023-04-15T23:27:13.791Z,102313.41
2023-04-15T23:29:40.560Z,102307.94
2023-04-15T23:32:07.144Z,102324.66
2023-04-15T23:34:33.728Z,102298.22
2023-04-15T23:37:00.413Z,102323.34
2023-04-15T23:39:26.984Z,102314.66
2023-04-15T23:41:53.630Z,102321.72
2023-04-15T23:44:20.370Z,102325.88
2023-04-15T23:46:47.082Z,102329.41
2023-04-15T23:49:13.755Z,102319.63
2023-04-15T23:51:40.953Z,102321.28
2023-04-15T23:54:07.503Z,102322.13
2023-04-15T23:56:34.179Z,102320.41
2023-04-15T23:59:00.832Z,102329.00
